»·PEaware :: N630HR KTNP-L70

N630HR :: KTNP-L70

FLIGHT INFORMATION

Flight Status: Arrived
Operator: Privately registered:
United States
More flights under this callsign
Pilot: Drew L. (13237)
Aircraft: CESSNA 172 SKYHAWK
(C172)
More flights by this aircraft type
Origin: KTNP Twentynine Palms
United States
Destination: L70 Agua Dulce
United States
More flights between these airports :: More routes between these airports
Route: +
File this flight plan on PilotEdge
Remarks:
Altitude:
(Current/Filed)
11,500ft
Speed:
(Current/Filed)
0kts
Departed: 13-Aug-17 08:40 PM
Arrived: 13-Aug-17 09:52 PM
Distance/Time
Traveled:
119nm/1:12
Distance/Time
To Go:
Arrived

Flight Plot

Page will automatically refresh every two minutes.

Flight plan parsing failed; only flown route is shown


Map Options




Map Legend


Flown Route
Filed Route
Departure Airport
Arrival Airport
Navaid (VOR, NDB)
Fix

Horizontal Profiles

Position Reports

Time Latitude Longitude Heading Altitude Ground
Speed
13-Aug-17 20:42 34.257333 -116.554755 279 8603ft 97kts
13-Aug-17 20:43 34.260573 -116.590079 275 8571ft 110kts
13-Aug-17 20:44 34.262988 -116.624965 273 8541ft 103kts
13-Aug-17 20:45 34.263567 -116.656648 271 8539ft 100kts
13-Aug-17 20:46 34.263095 -116.687608 271 8556ft 99kts
13-Aug-17 20:47 34.263506 -116.719864 271 8559ft 87kts
13-Aug-17 20:48 34.263953 -116.743545 270 8564ft 62kts
13-Aug-17 20:49 34.264394 -116.768213 267 8606ft 91kts
13-Aug-17 20:50 34.263998 -116.799441 268 8261ft 102kts
13-Aug-17 20:51 34.263883 -116.832193 272 7186ft 99kts
13-Aug-17 20:52 34.263923 -116.858575 267 6754ft 50kts
13-Aug-17 20:53 34.263356 -116.865435 87 6754ft 8kts
13-Aug-17 20:54 34.263373 -116.860731 84 6754ft 19kts
13-Aug-17 20:55 34.263834 -116.856306 55 6754ft 8kts
13-Aug-17 20:57 34.263950 -116.850779 89 6754ft 15kts
13-Aug-17 20:58 34.263954 -116.848661 273 6754ft 0kts
13-Aug-17 20:59 34.263997 -116.861384 267 6903ft 76kts
13-Aug-17 21:00 34.258313 -116.858700 84 7393ft 106kts
13-Aug-17 21:01 34.266230 -116.824200 49 7863ft 107kts
13-Aug-17 21:02 34.289288 -116.810395 340 8325ft 98kts
13-Aug-17 21:03 34.314804 -116.818363 326 8854ft 93kts
13-Aug-17 21:04 34.319520 -116.842562 250 9391ft 84kts
13-Aug-17 21:05 34.312282 -116.872415 282 9438ft 116kts
13-Aug-17 21:06 34.327729 -116.906245 296 9443ft 107kts
13-Aug-17 21:07 34.341091 -116.933918 296 9439ft 92kts
13-Aug-17 21:08 34.353767 -116.959863 296 9453ft 93kts
13-Aug-17 21:09 34.367127 -116.987377 296 9459ft 99kts
13-Aug-17 21:10 34.380896 -117.015836 296 9459ft 100kts
13-Aug-17 21:11 34.393327 -117.044866 282 9462ft 98kts
13-Aug-17 21:12 34.399822 -117.076620 281 9469ft 98kts
13-Aug-17 21:13 34.406230 -117.108140 281 9479ft 98kts
13-Aug-17 21:14 34.412583 -117.139571 280 9487ft 98kts
13-Aug-17 21:15 34.417417 -117.171142 278 9494ft 98kts
13-Aug-17 21:16 34.422273 -117.202897 278 9501ft 98kts
13-Aug-17 21:17 34.427176 -117.234863 279 9507ft 98kts
13-Aug-17 21:18 34.432049 -117.266551 279 9512ft 98kts
13-Aug-17 21:19 34.436733 -117.298307 278 9532ft 97kts
13-Aug-17 21:20 34.440408 -117.330334 276 9535ft 97kts
13-Aug-17 21:21 34.442943 -117.362471 274 9536ft 97kts
13-Aug-17 21:22 34.445377 -117.394679 274 9536ft 97kts
13-Aug-17 21:23 34.447816 -117.426879 274 9536ft 97kts
13-Aug-17 21:24 34.450267 -117.459179 274 9536ft 97kts
13-Aug-17 21:25 34.452714 -117.491368 274 9536ft 97kts
13-Aug-17 21:26 34.455168 -117.523593 274 9536ft 97kts
13-Aug-17 21:27 34.457630 -117.555860 274 9535ft 97kts
13-Aug-17 21:28 34.460088 -117.588002 274 9535ft 97kts
13-Aug-17 21:29 34.462542 -117.620112 274 9535ft 97kts
13-Aug-17 21:30 34.464622 -117.651753 271 9533ft 97kts
13-Aug-17 21:31 34.465843 -117.681492 271 9534ft 98kts
13-Aug-17 21:32 34.467145 -117.714052 271 9532ft 98kts
13-Aug-17 21:33 34.468410 -117.746497 271 9529ft 98kts
13-Aug-17 21:34 34.469644 -117.778954 271 9527ft 98kts
13-Aug-17 21:35 34.470857 -117.811601 271 9525ft 98kts
13-Aug-17 21:36 34.472171 -117.843835 279 9522ft 98kts
13-Aug-17 21:37 34.477461 -117.875347 279 9444ft 105kts
13-Aug-17 21:38 34.483305 -117.909984 280 8949ft 103kts
13-Aug-17 21:39 34.489023 -117.943024 280 8417ft 101kts
13-Aug-17 21:40 34.494942 -117.976597 280 7808ft 105kts
13-Aug-17 21:41 34.501053 -118.010625 280 7194ft 105kts
13-Aug-17 21:42 34.506107 -118.038267 280 6693ft 106kts
13-Aug-17 21:43 34.512459 -118.072391 280 6073ft 106kts
13-Aug-17 21:43 34.517850 -118.100749 280 5556ft 106kts
13-Aug-17 21:44 34.522573 -118.134048 264 5147ft 89kts
13-Aug-17 21:46 34.520877 -118.169784 264 5186ft 102kts
13-Aug-17 21:47 34.519738 -118.198418 264 5134ft 74kts
13-Aug-17 21:48 34.518989 -118.224191 264 4893ft 83kts
13-Aug-17 21:49 34.518380 -118.251427 264 4166ft 79kts
13-Aug-17 21:49 34.518121 -118.273490 263 3814ft 84kts
13-Aug-17 21:50 34.511952 -118.299525 232 3196ft 87kts
13-Aug-17 21:51 34.496700 -118.316566 166 3604ft 81kts
13-Aug-17 21:52 34.502230 -118.291063 59 3918ft 104kts
13-Aug-17 21:53 34.513191 -118.290406 269 3478ft 62kts
13-Aug-17 21:54 34.507348 -118.306989 231 2741ft 56kts
13-Aug-17 21:55 34.504516 -118.312410 238 2663ft 1kts
13-Aug-17 21:56 34.504447 -118.313065 143 2663ft 0kts

Navigation Log

Ident Type
Flight plan parsing failed, navigation log unavailable